Meteo Giornale » Osservazioni meteo Stati Uniti (USA) » Springfield Comanche National Grassland
ore: 23:56 - Osservazioni Meteo Springfield Comanche National Grassland
Lat. 37° 17' N Lon. 102° 37' W Alt. 1335 metri s.l.m.
19 °C
Sereno
Temp. 24 Ore
14 °C
36 °C
Sud/Sud-Ovest
18.5 Km/h
Dew point 17 °C
Umidità 88 %
Visibilità 21 Km
Il sole sorge alle ore 06:22
Il sole tramonta alle ore 19:18
| Data e Ora | Cielo e Fenomeni | T °C | DP °C | Um. % | Pres. hPa | Vis. km | Vento km/h | |
|---|---|---|---|---|---|---|---|---|
| Ieri h: 23:56 | Sereno | 19 | 17 | 88 | 1018 | 21 | S/SO 18.5 | |
| Ieri h: 22:56 | Sereno | 20 | 16 | 77 | 1018 | 20 | S/SO 20.3 | |
| Ieri h: 21:56 | Sereno | 20 | 17 | 82 | 1019 | 20 | S/SO 14.8 | |
| Ieri h: 20:56 | Sereno | 21 | 17 | 77 | 1018 | 20 | S/SE 14.8 | |
| Ieri h: 19:56 | Sereno | 21 | 17 | 77 | 1019 | 20 | S 25.9 | |
| Ieri h: 18:56 | Sereno | 22 | 18 | 78 | 1017 | 20 | SE 13 | |
| Ieri h: 17:56 | Sereno | 20 | 16 | 77 | 1018 | 12 | O 29.6 | |
| Ieri h: 16:56 | Sereno | 22 | 18 | 78 | 1017 | 12 | N 18.5 | |
| Ieri h: 15:56 | Sereno | 19 | 17 | 88 | 1018 | 12 | N/NO 40.7 | |
| Ieri h: 14:56 | Sereno | 33 | 12 | 27 | 1017 | 12 | S 18.5 | |
| Ieri h: 13:56 | Sereno | 36 | 11 | 22 | 1017 | 12 | S/SO 16.7 | |
| Ieri h: 12:56 | Sereno | 34 | 11 | 24 | 1018 | 12 | S/SO 14.8 | |
| Ieri h: 11:56 | Sereno | 33 | 13 | 29 | 1019 | 12 | S 14.8 | |
| Ieri h: 10:56 | Sereno | 32 | 12 | 29 | 1020 | 12 | S/SO 24 | |
| Ieri h: 09:56 | Sereno | 31 | 12 | 31 | 1020 | 12 | S/SO 20.3 | |
| Ieri h: 08:56 | Sereno | 28 | 12 | 37 | 1020 | 11 | S/SO 24 | |
| Ieri h: 07:56 | Sereno | 24 | 14 | 53 | 1020 | 11 | S/SO 14.8 | |
| Ieri h: 06:56 | Sereno | 16 | 14 | 87 | 1020 | 11 | S/SO 7.4 | |
| Ieri h: 05:56 | Sereno | 14 | 13 | 93 | 1020 | 11 | O/SO 7.4 | |
| Ieri h: 04:56 | Sereno | 14 | 13 | 93 | 1020 | 11 | SO 7.4 | |
| Ieri h: 03:56 | Sereno | 15 | 14 | 93 | 1020 | 11 | O/SO 9.3 | |
| Ieri h: 02:56 | Sereno | 17 | 15 | 88 | 1020 | 11 | N 5.5 | |
| Ieri h: 01:56 | Sereno | 17 | 15 | 88 | 1020 | 11 | N 5.5 | |
| Ieri h: 00:56 | Sereno | 17 | 16 | 93 | 1020 | 11 | NO 14.8 | |



